• °C
  • Pobieranie danych...
wx



TAF EPLB 010230Z 0103/0112 04007KT 5000 BR BKN010
TEMPO 0103/0107 2000 -RADZ BR BKN002 BKN005
TEMPO 0107/0112 -RA BKN005=

TAF EPRA 010200Z NIL=

TAF EPRA 302300Z NIL=

TAF EPSY 010230Z 0103/0112 03005KT 8000 SCT040
PROB30 TEMPO 0103/0106 4000 BR BKN014=

TAF EPZG 010230Z 0103/0112 31003KT 9999 SCT040
TEMPO 0103/0106 3000 BR=

TAF EPZG 302300Z NIL=



IMGW-PIB Sites